Aviation Digital Data Service (ADDS)

Output produced by METARs form (2345 UTC 07 February 2016)
found at http://aviationweather.gov/adds/metars/
 
KPHX 072322Z 0800/0824 33005KT P6SM SKC 
     FM080600 05004KT P6SM SKC 
     FM081700 06012KT P6SM SKC